Time;durP1;ratioP1;P1;durP2;ratioP2;P2;SDS_P1;SDS_P2;PMS_P1;PMS_P2;Temp;Humidity;BMP_temperature;BMP_pressure;BME280_temperature;BME280_humidity;BME280_pressure;Samples;Min_cycle;Max_cycle;Signal;HPM_P1;HPM_P2
2023/10/12 00:01:11;;;;;;;3.90;3.50;;;22.90;1.00;;;;;;4958573;28;20407;-89
2023/10/12 00:03:37;;;;;;;7.73;4.20;;;23.90;1.00;;;;;;4975030;28;20472;-89
2023/10/12 00:06:06;;;;;;;4.75;4.13;;;23.60;1.00;;;;;;4958054;28;20380;-90
2023/10/12 00:08:32;;;;;;;5.23;4.10;;;20.90;1.00;;;;;;4975289;28;20389;-89
2023/10/12 00:10:58;;;;;;;7.15;4.20;;;22.10;1.00;;;;;;4975351;28;20415;-89
2023/10/12 00:13:28;;;;;;;6.27;4.10;;;22.10;1.00;;;;;;4975359;28;20388;-89
2023/10/12 00:15:56;;;;;;;5.35;4.03;;;21.90;1.00;;;;;;4975388;28;20388;-89
2023/10/12 00:18:22;;;;;;;4.77;4.20;;;21.20;1.00;;;;;;4958410;28;20780;-89
2023/10/12 00:20:54;;;;;;;7.83;4.43;;;21.00;1.00;;;;;;4976746;28;20404;-89
2023/10/12 00:23:20;;;;;;;5.68;4.35;;;20.70;1.00;;;;;;4958298;28;20435;-89
2023/10/12 00:25:48;;;;;;;9.15;4.20;;;22.20;1.00;;;;;;4957113;28;20420;-90
2023/10/12 00:28:21;;;;;;;7.03;4.00;;;22.00;1.00;;;;;;4956798;28;20407;-88
2023/10/12 00:30:54;;;;;;;8.05;4.30;;;22.10;1.00;;;;;;4957240;28;20412;-89
2023/10/12 00:33:23;;;;;;;7.50;4.30;;;20.90;1.00;;;;;;4974400;28;20482;-89
2023/10/12 00:35:59;;;;;;;5.82;4.20;;;21.00;1.00;;;;;;4957567;28;20407;-89
2023/10/12 00:38:29;;;;;;;7.72;4.32;;;23.00;1.00;;;;;;4974567;28;20943;-89
2023/10/12 00:40:57;;;;;;;5.32;4.00;;;23.00;1.00;;;;;;4957526;28;20428;-89
2023/10/12 00:43:39;;;;;;;7.13;4.20;;;20.90;1.00;;;;;;4957393;28;20483;-90
2023/10/12 00:49:13;;;;;;;9.23;4.63;;;21.90;1.00;;;;;;4980903;28;20911;-90
2023/10/12 00:51:35;;;;;;;7.70;3.75;;;21.30;1.00;;;;;;4978685;28;20444;-89
2023/10/12 00:54:03;;;;;;;7.57;4.50;;;20.80;1.00;;;;;;4974782;28;20395;-90
2023/10/12 00:56:30;;;;;;;5.32;4.05;;;21.00;1.00;;;;;;4966510;28;20405;-89
2023/10/12 00:58:56;;;;;;;8.05;4.43;;;21.00;1.00;;;;;;4975036;28;20380;-89
2023/10/12 01:01:23;;;;;;;6.90;3.92;;;21.40;1.00;;;;;;4959714;28;20408;-89
2023/10/12 01:03:50;;;;;;;8.73;4.30;;;21.00;1.00;;;;;;4958729;28;20422;-90
2023/10/12 01:08:50;;;;;;;5.40;3.90;;;20.30;1.00;;;;;;4972956;28;20505;-88
2023/10/12 01:11:19;;;;;;;7.90;4.03;;;20.90;1.00;;;;;;4967615;28;20399;-89
2023/10/12 01:14:10;;;;;;;8.88;4.10;;;20.50;1.00;;;;;;4966483;28;20399;-89
2023/10/12 01:19:07;;;;;;;7.57;4.00;;;19.90;1.00;;;;;;4974087;28;20785;-89
2023/10/12 01:21:36;;;;;;;6.77;4.10;;;21.30;1.00;;;;;;4973152;28;20411;-89
2023/10/12 01:24:04;;;;;;;6.28;3.55;;;20.40;1.00;;;;;;4957169;28;20411;-89
2023/10/12 01:26:31;;;;;;;6.20;3.80;;;20.20;1.00;;;;;;4961624;28;20431;-89
2023/10/12 01:28:58;;;;;;;7.20;4.00;;;20.10;1.00;;;;;;4958113;28;20420;-90
2023/10/12 01:31:27;;;;;;;7.65;3.92;;;22.50;1.00;;;;;;4958128;28;20746;-89
2023/10/12 01:33:57;;;;;;;4.93;4.03;;;20.30;1.00;;;;;;4982587;28;20509;-87
2023/10/12 01:36:33;;;;;;;6.55;3.65;;;21.60;1.00;;;;;;4958967;28;20478;-87
2023/10/12 01:39:12;;;;;;;6.78;4.07;;;21.80;1.00;;;;;;4957787;28;20528;-87
2023/10/12 01:41:40;;;;;;;6.28;4.22;;;22.10;1.00;;;;;;4974965;28;20836;-89
2023/10/12 01:44:10;;;;;;;6.28;3.97;;;20.80;1.00;;;;;;4975819;28;20410;-89
2023/10/12 01:46:39;;;;;;;5.88;3.97;;;23.10;1.00;;;;;;4993096;28;20390;-89
2023/10/12 01:49:06;;;;;;;7.63;4.30;;;20.50;1.00;;;;;;4975467;28;20410;-90
2023/10/12 01:51:33;;;;;;;7.00;4.05;;;20.80;1.00;;;;;;4959689;28;20468;-87
2023/10/12 01:53:59;;;;;;;7.13;4.00;;;21.00;1.00;;;;;;4956012;28;20423;-87
2023/10/12 01:56:28;;;;;;;7.38;4.32;;;21.30;1.00;;;;;;4957337;28;20403;-87
2023/10/12 01:58:54;;;;;;;8.40;4.10;;;22.30;1.00;;;;;;4956560;28;20487;-87
2023/10/12 02:01:21;;;;;;;5.70;3.70;;;23.20;1.00;;;;;;4956328;28;20923;-88
2023/10/12 02:03:53;;;;;;;4.90;3.60;;;21.10;1.00;;;;;;4956107;28;20407;-87
2023/10/12 02:06:22;;;;;;;6.18;3.92;;;22.30;1.00;;;;;;4956234;28;20407;-87
2023/10/12 02:08:52;;;;;;;7.45;3.90;;;22.40;1.00;;;;;;4955870;28;20396;-89
2023/10/12 02:13:47;;;;;;;9.40;3.90;;;23.10;1.00;;;;;;4972734;28;21052;-89
2023/10/12 02:16:23;;;;;;;4.82;3.75;;;21.10;1.00;;;;;;4956321;28;21150;-88
2023/10/12 02:18:49;;;;;;;8.20;3.70;;;22.90;1.00;;;;;;4956162;28;20427;-88
2023/10/12 02:21:21;;;;;;;8.55;3.78;;;22.80;1.00;;;;;;4955825;28;20475;-88
2023/10/12 02:26:37;;;;;;;5.97;3.88;;;22.90;1.00;;;;;;4972159;28;20492;-88
2023/10/12 02:31:45;;;;;;;5.07;3.63;;;21.80;1.00;;;;;;4973073;28;20404;-88
2023/10/12 02:34:16;;;;;;;5.10;3.45;;;21.90;1.00;;;;;;4955959;28;20407;-88
2023/10/12 02:36:56;;;;;;;6.63;3.40;;;21.70;1.00;;;;;;4956994;28;20401;-88
2023/10/12 02:39:22;;;;;;;7.03;4.00;;;21.30;1.00;;;;;;4972392;28;20423;-88
2023/10/12 02:41:53;;;;;;;6.57;3.72;;;20.80;1.00;;;;;;4984754;28;20780;-88
2023/10/12 02:44:19;;;;;;;6.82;3.90;;;22.90;1.00;;;;;;4987768;28;20409;-88
2023/10/12 02:47:12;;;;;;;7.20;4.27;;;22.00;1.00;;;;;;4979190;28;20434;-88
2023/10/12 02:49:40;;;;;;;5.07;3.55;;;21.20;1.00;;;;;;4971032;28;20428;-86
2023/10/12 02:52:08;;;;;;;4.85;3.58;;;22.30;1.00;;;;;;4972999;28;20392;-88
2023/10/12 02:54:50;;;;;;;5.78;3.55;;;22.40;1.00;;;;;;4956021;28;20404;-88
2023/10/12 02:57:25;;;;;;;4.35;3.40;;;21.80;1.00;;;;;;4955352;28;20393;-88
2023/10/12 03:00:03;;;;;;;4.53;3.50;;;21.10;1.00;;;;;;4972328;28;20411;-89
2023/10/12 03:02:35;;;;;;;4.63;3.40;;;22.60;1.00;;;;;;4955126;28;20427;-88
2023/10/12 03:05:08;;;;;;;5.07;3.10;;;22.60;1.00;;;;;;4955366;28;20430;-88
2023/10/12 03:07:39;;;;;;;5.87;3.70;;;20.80;1.00;;;;;;4957020;28;20407;-88
2023/10/12 03:10:26;;;;;;;5.32;3.55;;;22.60;1.00;;;;;;4980936;28;20408;-88
2023/10/12 03:12:55;;;;;;;6.95;3.60;;;21.00;1.00;;;;;;4971724;28;20436;-88
2023/10/12 03:15:42;;;;;;;5.80;3.40;;;21.10;1.00;;;;;;4972226;28;20391;-88
2023/10/12 03:18:11;;;;;;;5.57;3.67;;;21.90;1.00;;;;;;4972653;28;20392;-88
2023/10/12 03:20:37;;;;;;;5.28;3.60;;;20.50;1.00;;;;;;4957284;28;20470;-88
2023/10/12 03:23:13;;;;;;;4.80;3.60;;;22.90;1.00;;;;;;4958756;28;20482;-88
2023/10/12 03:25:43;;;;;;;9.38;4.05;;;22.80;1.00;;;;;;4985449;28;20400;-88
2023/10/12 03:28:13;;;;;;;8.50;3.80;;;21.90;1.00;;;;;;4980925;28;20404;-87
2023/10/12 03:30:52;;;;;;;4.60;3.40;;;21.80;1.00;;;;;;4988117;28;20788;-88
2023/10/12 03:33:19;;;;;;;6.53;3.45;;;21.80;1.00;;;;;;4960261;28;20470;-87
2023/10/12 03:36:13;;;;;;;4.60;3.83;;;22.70;1.00;;;;;;4976534;28;20419;-86
2023/10/12 03:38:40;;;;;;;6.28;4.00;;;21.10;1.00;;;;;;4942630;28;20404;-88
2023/10/12 03:43:54;;;;;;;5.25;3.88;;;21.10;1.00;;;;;;4976893;28;20391;-89
2023/10/12 03:46:32;;;;;;;6.22;4.10;;;22.40;1.00;;;;;;4955462;28;20841;-88
2023/10/12 03:49:16;;;;;;;4.82;3.58;;;20.70;1.00;;;;;;4958983;28;20404;-88
2023/10/12 03:51:42;;;;;;;4.97;3.38;;;20.70;1.00;;;;;;4959071;28;20427;-88
2023/10/12 03:54:18;;;;;;;5.90;3.70;;;23.10;1.00;;;;;;4959033;28;20427;-88
2023/10/12 03:56:48;;;;;;;7.45;3.97;;;21.20;1.00;;;;;;4959052;28;20439;-88
2023/10/12 03:59:19;;;;;;;6.00;4.00;;;20.10;1.00;;;;;;4958829;28;20805;-88
2023/10/12 04:01:46;;;;;;;5.20;4.47;;;19.70;1.00;;;;;;4958253;28;20507;-87
2023/10/12 04:09:31;;;;;;;7.30;4.53;;;20.40;1.00;;;;;;4975443;28;20491;-88
2023/10/12 04:12:11;;;;;;;5.70;4.30;;;18.10;1.00;;;;;;4958995;28;20388;-88
2023/10/12 04:14:46;;;;;;;8.82;4.80;;;17.40;1.00;;;;;;4958681;28;20468;-88
2023/10/12 04:17:59;;;;;;;7.67;4.43;;;17.30;1.00;;;;;;4975645;28;20455;-88
2023/10/12 04:25:13;;;;;;;6.80;4.60;;;19.40;1.00;;;;;;4975679;28;20888;-88
2023/10/12 04:27:41;;;;;;;8.65;4.28;;;17.70;1.00;;;;;;4958411;28;20834;-89
2023/10/12 04:30:20;;;;;;;6.60;4.20;;;16.90;1.00;;;;;;4958279;28;20416;-90
2023/10/12 04:38:38;;;;;;;7.38;4.90;;;17.80;1.00;;;;;;4970345;28;20450;-88
2023/10/12 04:43:52;;;;;;;4.95;4.20;;;17.10;1.00;;;;;;4972692;28;20404;-88
2023/10/12 04:51:39;;;;;;;5.13;4.40;;;16.30;1.00;;;;;;4975222;28;20431;-90
2023/10/12 04:54:16;;;;;;;7.45;4.75;;;19.50;1.00;;;;;;4976116;28;20768;-89
2023/10/12 04:56:55;;;;;;;7.35;4.40;;;17.70;1.00;;;;;;4966929;28;20424;-87
2023/10/12 04:59:26;;;;;;;7.30;4.60;;;16.80;1.00;;;;;;4985274;28;20414;-89
2023/10/12 05:04:49;;;;;;;8.70;4.93;;;16.70;1.00;;;;;;4992166;28;20525;-88
2023/10/12 05:09:48;;;;;;;9.52;5.10;;;19.00;1.00;;;;;;4976192;28;20423;-87
2023/10/12 05:12:14;;;;;;;8.30;5.20;;;16.30;1.00;;;;;;4960443;28;20404;-89
2023/10/12 05:14:40;;;;;;;7.45;5.13;;;17.80;1.00;;;;;;4970806;28;20404;-89
2023/10/12 05:17:08;;;;;;;9.73;4.97;;;17.10;1.00;;;;;;4964227;28;20406;-89
2023/10/12 05:19:34;;;;;;;9.20;5.75;;;16.00;1.00;;;;;;4961823;28;20483;-89
2023/10/12 05:22:00;;;;;;;8.30;5.13;;;19.40;1.00;;;;;;4996474;28;20400;-89
2023/10/12 05:24:25;;;;;;;9.40;5.33;;;17.40;1.00;;;;;;4971567;28;20428;-88
2023/10/12 05:27:09;;;;;;;8.02;4.90;;;16.60;1.00;;;;;;4968828;28;20380;-90
2023/10/12 05:29:38;;;;;;;5.80;4.80;;;16.50;1.00;;;;;;4984269;28;20424;-87
2023/10/12 05:32:21;;;;;;;9.57;5.97;;;18.90;1.00;;;;;;4960765;28;20409;-87
2023/10/12 05:34:52;;;;;;;6.78;4.82;;;16.60;1.00;;;;;;4971547;28;20458;-87
2023/10/12 05:37:38;;;;;;;6.10;4.40;;;16.80;1.00;;;;;;4957265;28;20396;-88
2023/10/12 05:40:13;;;;;;;7.63;5.13;;;18.80;1.00;;;;;;4957624;28;20952;-87
2023/10/12 05:42:47;;;;;;;7.80;5.32;;;14.50;1.00;;;;;;4956970;28;20412;-87
2023/10/12 05:45:30;;;;;;;7.50;4.50;;;16.60;1.00;;;;;;4957433;28;20440;-88
2023/10/12 05:47:59;;;;;;;8.57;4.97;;;17.60;1.00;;;;;;4972481;28;20406;-87
2023/10/12 05:50:30;;;;;;;8.43;5.60;;;18.70;1.00;;;;;;4959880;28;20416;-86
2023/10/12 05:52:59;;;;;;;7.60;5.00;;;16.50;1.00;;;;;;4960778;28;20465;-87
2023/10/12 05:55:33;;;;;;;7.40;5.10;;;16.50;1.00;;;;;;4979282;28;20931;-87
2023/10/12 05:58:06;;;;;;;7.15;5.40;;;15.00;1.00;;;;;;4958051;28;20738;-86
2023/10/12 06:00:45;;;;;;;5.90;5.00;;;16.40;1.00;;;;;;4957472;28;20406;-87
2023/10/12 06:03:21;;;;;;;6.97;4.72;;;16.30;1.00;;;;;;4956775;28;20499;-87
2023/10/12 06:05:57;;;;;;;9.30;5.18;;;19.80;1.00;;;;;;4956479;28;20400;-87
2023/10/12 06:08:28;;;;;;;7.55;4.82;;;14.40;1.00;;;;;;4974312;28;20929;-87
2023/10/12 06:11:01;;;;;;;8.15;5.18;;;17.20;1.00;;;;;;4957796;28;20408;-87
2023/10/12 06:13:48;;;;;;;8.68;5.40;;;19.40;1.00;;;;;;4974394;28;20391;-87
2023/10/12 06:16:20;;;;;;;9.43;5.47;;;16.20;1.00;;;;;;4958152;28;20388;-87
2023/10/12 06:18:53;;;;;;;8.93;5.68;;;16.40;1.00;;;;;;4979931;28;20396;-87
2023/10/12 06:21:29;;;;;;;8.35;5.05;;;17.70;1.00;;;;;;4956987;28;20404;-87
2023/10/12 06:24:01;;;;;;;8.95;5.40;;;16.90;1.00;;;;;;4956556;28;20828;-87
2023/10/12 06:26:29;;;;;;;6.65;5.60;;;19.60;1.00;;;;;;4957005;28;20461;-87
2023/10/12 06:28:59;;;;;;;7.32;5.75;;;17.10;1.00;;;;;;4974181;28;20495;-87
2023/10/12 06:31:34;;;;;;;7.13;4.80;;;19.60;1.00;;;;;;4973766;28;20404;-87
2023/10/12 06:34:11;;;;;;;8.70;5.47;;;16.40;1.00;;;;;;4957172;28;20450;-86
2023/10/12 06:36:50;;;;;;;8.70;5.13;;;15.30;1.00;;;;;;4957238;28;20404;-87
2023/10/12 06:42:25;;;;;;;8.52;5.40;;;19.80;1.00;;;;;;4979832;28;20883;-87
2023/10/12 06:45:06;;;;;;;;;;;;;;;;;;;;;
2023/10/12 06:47:41;;;;;;;7.28;5.75;;;16.90;1.00;;;;;;4992003;23;20470;-87
2023/10/12 06:50:25;;;;;;;6.13;5.05;;;17.40;1.00;;;;;;4972359;28;20443;-87
2023/10/12 06:52:58;;;;;;;6.38;5.57;;;18.40;1.00;;;;;;4954024;29;20485;-87
2023/10/12 06:55:28;;;;;;;10.27;5.93;;;17.10;1.00;;;;;;4955762;28;20401;-85
2023/10/12 06:58:04;;;;;;;8.10;5.20;;;16.90;1.00;;;;;;4939070;29;20786;-87
2023/10/12 07:01:06;;;;;;;8.13;5.18;;;16.80;1.00;;;;;;4959005;28;20484;-87
2023/10/12 07:03:31;;;;;;;7.68;5.40;;;21.00;1.00;;;;;;4974595;28;20396;-87
2023/10/12 07:05:57;;;;;;;6.80;5.05;;;20.00;1.00;;;;;;4957697;28;20399;-86
2023/10/12 07:08:34;;;;;;;7.72;5.10;;;17.40;1.00;;;;;;4956366;28;20396;-87
2023/10/12 07:11:08;;;;;;;8.27;5.28;;;21.10;1.00;;;;;;4958081;28;20412;-86
2023/10/12 07:13:52;;;;;;;6.40;5.05;;;17.80;1.00;;;;;;4959516;28;20392;-88
2023/10/12 07:16:21;;;;;;;8.70;5.50;;;21.50;1.00;;;;;;4960262;28;20415;-87
2023/10/12 07:18:53;;;;;;;5.75;4.63;;;21.00;1.00;;;;;;4983728;28;20395;-87
2023/10/12 07:21:23;;;;;;;8.35;5.30;;;18.90;1.00;;;;;;4958130;28;20404;-87
2023/10/12 07:23:55;;;;;;;10.77;5.75;;;20.80;1.00;;;;;;4956862;28;20395;-86
2023/10/12 07:26:23;;;;;;;6.72;4.63;;;17.10;1.00;;;;;;4975495;23;20454;-87
2023/10/12 07:28:55;;;;;;;7.32;4.75;;;19.80;1.00;;;;;;4972118;28;20926;-87
2023/10/12 07:31:37;;;;;;;8.97;5.00;;;21.90;1.00;;;;;;4971707;28;20415;-88
2023/10/12 07:34:05;;;;;;;7.80;4.93;;;23.10;1.00;;;;;;4954383;29;20933;-87
2023/10/12 07:36:56;;;;;;;9.30;4.50;;;20.20;1.00;;;;;;4949456;28;20444;-86
2023/10/12 07:39:42;;;;;;;5.68;4.85;;;22.70;1.00;;;;;;4956156;28;20464;-86
2023/10/12 07:42:27;;;;;;;5.53;4.68;;;20.90;1.00;;;;;;4942803;29;20783;-87
2023/10/12 07:45:05;;;;;;;6.25;4.90;;;21.40;1.00;;;;;;4944563;28;20407;-87
2023/10/12 07:47:58;;;;;;;6.65;4.32;;;21.10;1.00;;;;;;4955568;28;20450;-86
2023/10/12 07:50:47;;;;;;;7.50;4.50;;;22.70;1.00;;;;;;4955762;28;20883;-85
2023/10/12 07:53:22;;;;;;;5.95;4.70;;;21.60;1.00;;;;;;4943643;29;20493;-85
2023/10/12 07:56:00;;;;;;;8.15;4.88;;;21.90;1.00;;;;;;4953792;28;20397;-86
2023/10/12 07:58:29;;;;;;;6.90;4.97;;;21.50;1.00;;;;;;4951045;28;20438;-86
2023/10/12 08:01:19;;;;;;;6.40;4.23;;;21.90;1.00;;;;;;4941992;28;20400;-86
2023/10/12 08:03:50;;;;;;;6.10;4.10;;;23.00;1.00;;;;;;4974697;28;20392;-86
2023/10/12 08:06:16;;;;;;;6.25;4.85;;;23.10;1.00;;;;;;4976679;28;20400;-86
2023/10/12 08:08:41;;;;;;;6.80;4.10;;;23.00;1.00;;;;;;4959484;28;20890;-87
2023/10/12 08:11:23;;;;;;;7.00;4.90;;;22.40;1.00;;;;;;4942965;29;20444;-86
2023/10/12 08:13:48;;;;;;;10.05;4.60;;;22.10;1.00;;;;;;4957844;29;20421;-87
2023/10/12 08:16:15;;;;;;;5.20;3.97;;;23.10;1.00;;;;;;4940892;29;20446;-86
2023/10/12 08:21:32;;;;;;;4.82;4.07;;;22.10;1.00;;;;;;4967522;28;20410;-86
2023/10/12 08:26:47;;;;;;;6.47;4.53;;;22.30;1.00;;;;;;4972844;28;20481;-85
2023/10/12 08:29:17;;;;;;;7.40;3.95;;;22.30;1.00;;;;;;4942812;29;20426;-86
2023/10/12 08:31:44;;;;;;;6.22;4.30;;;22.20;1.00;;;;;;4941669;29;20390;-86
2023/10/12 08:34:41;;;;;;;5.28;4.50;;;22.50;1.00;;;;;;4953328;28;20451;-85
2023/10/12 08:39:38;;;;;;;8.00;4.37;;;23.10;1.00;;;;;;4979420;28;20451;-85
2023/10/12 08:44:54;;;;;;;7.57;4.50;;;22.50;1.00;;;;;;4979000;28;20428;-86
2023/10/12 08:47:27;;;;;;;5.88;4.22;;;22.80;1.00;;;;;;4968872;28;20448;-86
2023/10/12 08:49:53;;;;;;;5.82;4.03;;;23.00;1.00;;;;;;4944098;29;20871;-86
2023/10/12 08:52:27;;;;;;;5.80;4.22;;;24.40;1.00;;;;;;4950938;29;20458;-85
2023/10/12 08:54:58;;;;;;;4.70;3.95;;;22.80;1.00;;;;;;4977645;28;20769;-85
2023/10/12 08:57:43;;;;;;;7.00;4.10;;;23.00;1.00;;;;;;4967911;28;20400;-85
2023/10/12 09:05:51;;;;;;;6.10;4.40;;;22.60;1.00;;;;;;4977756;28;20456;-85
2023/10/12 09:10:54;;;;;;;7.35;4.35;;;24.40;1.00;;;;;;4994421;28;20408;-85
2023/10/12 09:13:21;;;;;;;6.35;4.05;;;23.10;1.00;;;;;;4996903;28;20402;-82
2023/10/12 09:15:54;;;;;;;5.50;4.07;;;23.40;1.00;;;;;;4977880;28;20397;-85
2023/10/12 09:18:24;;;;;;;7.78;4.30;;;23.90;1.00;;;;;;4990277;28;20947;-85
2023/10/12 09:23:46;;;;;;;4.60;3.90;;;24.30;1.00;;;;;;4976277;28;20404;-86
2023/10/12 09:28:58;;;;;;;6.50;4.23;;;23.40;1.00;;;;;;4995601;28;20388;-85
2023/10/12 09:36:26;;;;;;;6.47;4.50;;;23.40;1.00;;;;;;4975567;28;20400;-86
2023/10/12 09:38:55;;;;;;;4.68;3.70;;;23.20;1.00;;;;;;4977022;28;20384;-85
2023/10/12 09:41:27;;;;;;;6.38;3.88;;;23.10;1.00;;;;;;4960818;28;20414;-86
2023/10/12 09:43:56;;;;;;;5.10;3.80;;;23.80;1.00;;;;;;4958554;28;20388;-86
2023/10/12 09:46:27;;;;;;;4.70;3.70;;;24.50;1.00;;;;;;4957803;28;20396;-86
2023/10/12 09:49:06;;;;;;;7.00;4.30;;;24.00;1.00;;;;;;4975180;28;20420;-87
2023/10/12 09:51:36;;;;;;;6.13;4.20;;;23.50;1.00;;;;;;4957969;28;20396;-85
2023/10/12 09:54:15;;;;;;;4.75;3.80;;;24.10;1.00;;;;;;4976734;28;20408;-86
2023/10/12 09:56:53;;;;;;;5.05;3.60;;;23.60;1.00;;;;;;4959244;28;20395;-86
2023/10/12 09:59:19;;;;;;;6.07;3.88;;;23.70;1.00;;;;;;4963112;28;20396;-86
2023/10/12 10:01:49;;;;;;;4.50;4.03;;;23.80;1.00;;;;;;4959972;29;20397;-85
2023/10/12 10:07:25;;;;;;;7.05;3.92;;;24.10;1.00;;;;;;4958214;29;20394;-86
2023/10/12 10:10:01;;;;;;;5.80;3.80;;;23.80;1.00;;;;;;4940686;29;20417;-86
2023/10/12 10:12:27;;;;;;;6.23;4.03;;;26.30;1.00;;;;;;4940837;29;20454;-86
2023/10/12 10:17:59;;;;;;;6.18;3.90;;;24.40;1.00;;;;;;4969007;28;20390;-81
2023/10/12 10:23:12;;;;;;;4.43;3.70;;;26.40;1.00;;;;;;4998196;28;20439;-87
2023/10/12 10:25:51;;;;;;;6.80;3.72;;;24.10;1.00;;;;;;4958414;28;20411;-87
2023/10/12 10:28:24;;;;;;;6.35;4.07;;;25.50;1.00;;;;;;4959684;28;20400;-86
2023/10/12 10:31:04;;;;;;;4.13;3.50;;;26.70;1.00;;;;;;4957680;28;20412;-84
2023/10/12 10:33:36;;;;;;;5.20;4.05;;;24.20;1.00;;;;;;4974582;28;20419;-84
2023/10/12 10:36:17;;;;;;;6.40;3.77;;;24.20;1.00;;;;;;4975906;28;20447;-85
2023/10/12 10:38:53;;;;;;;6.55;4.00;;;24.60;1.00;;;;;;4958183;28;20396;-84
2023/10/12 10:41:38;;;;;;;5.57;4.07;;;24.40;1.00;;;;;;4957595;28;20409;-83
2023/10/12 10:44:21;;;;;;;5.85;4.05;;;24.20;1.00;;;;;;4942133;28;20460;-86
2023/10/12 10:46:49;;;;;;;6.18;4.05;;;24.60;1.00;;;;;;4972800;28;20409;-84
2023/10/12 10:49:16;;;;;;;5.63;4.10;;;24.80;1.00;;;;;;4973447;29;20369;-84
2023/10/12 10:54:38;;;;;;;5.10;3.70;;;25.70;1.00;;;;;;4965554;28;20400;-84
2023/10/12 10:57:25;;;;;;;6.93;4.10;;;26.60;1.00;;;;;;4965969;28;21107;-83
2023/10/12 10:59:52;;;;;;;6.25;4.38;;;25.70;1.00;;;;;;4955694;29;20406;-84
2023/10/12 11:02:22;;;;;;;6.68;3.90;;;26.70;1.00;;;;;;4960754;28;20428;-83
2023/10/12 11:05:10;;;;;;;5.05;4.10;;;27.40;1.00;;;;;;4960375;28;20434;-84
2023/10/12 11:07:39;;;;;;;7.55;4.47;;;25.40;1.00;;;;;;4960544;29;20404;-83
2023/10/12 11:10:07;;;;;;;6.63;3.83;;;26.90;1.00;;;;;;4959485;29;20401;-84
2023/10/12 11:12:36;;;;;;;6.30;3.70;;;26.40;1.00;;;;;;4970484;28;20396;-84
2023/10/12 11:15:11;;;;;;;7.80;3.90;;;27.40;1.00;;;;;;4975430;28;20395;-83
2023/10/12 11:17:41;;;;;;;6.70;3.70;;;26.70;1.00;;;;;;4955360;28;20404;-85
2023/10/12 11:20:29;;;;;;;9.90;4.72;;;26.80;1.00;;;;;;4957649;28;20415;-85
2023/10/12 11:22:55;;;;;;;5.53;3.95;;;26.90;1.00;;;;;;4958459;28;20604;-84
2023/10/12 11:25:21;;;;;;;5.72;4.22;;;27.60;1.00;;;;;;4958270;28;20507;-84
2023/10/12 11:27:47;;;;;;;5.63;4.30;;;28.40;1.00;;;;;;4960442;28;20412;-85
2023/10/12 11:30:18;;;;;;;6.18;3.70;;;26.80;1.00;;;;;;4939948;29;20426;-83
2023/10/12 11:32:54;;;;;;;7.82;4.70;;;27.20;1.00;;;;;;4940347;29;20922;-83
2023/10/12 11:35:33;;;;;;;5.85;4.30;;;28.00;1.00;;;;;;4972399;28;20410;-86
2023/10/12 11:38:00;;;;;;;5.88;3.80;;;27.40;1.00;;;;;;4983483;28;20403;-84
2023/10/12 11:40:32;;;;;;;5.32;3.70;;;28.40;1.00;;;;;;4993314;28;20497;-84
2023/10/12 11:42:58;;;;;;;6.03;3.55;;;27.30;1.00;;;;;;5002178;28;20463;-84
2023/10/12 11:45:32;;;;;;;6.03;3.80;;;27.90;1.00;;;;;;4992948;28;20408;-83
2023/10/12 11:48:14;;;;;;;4.85;3.80;;;27.70;1.00;;;;;;5001748;28;20388;-82
2023/10/12 11:50:40;;;;;;;5.97;3.50;;;28.00;1.00;;;;;;5010563;28;20406;-84
2023/10/12 11:53:05;;;;;;;4.10;3.67;;;27.30;1.00;;;;;;5017055;28;20394;-82
2023/10/12 11:55:31;;;;;;;7.23;3.80;;;28.60;1.00;;;;;;4980292;29;20413;-81
2023/10/12 11:58:06;;;;;;;7.40;3.60;;;28.20;1.00;;;;;;4972027;29;20389;-85
2023/10/12 12:00:36;;;;;;;5.05;3.90;;;28.40;1.00;;;;;;4946325;29;20429;-85
2023/10/12 12:03:03;;;;;;;5.65;3.92;;;28.70;1.00;;;;;;4944104;28;20480;-84
2023/10/12 12:05:30;;;;;;;5.37;3.80;;;27.90;1.00;;;;;;4945215;29;20547;-83
2023/10/12 12:08:13;;;;;;;7.05;4.20;;;27.30;1.00;;;;;;4970446;28;20391;-84
2023/10/12 12:10:53;;;;;;;4.75;3.70;;;27.50;1.00;;;;;;4990043;28;21040;-84
2023/10/12 12:13:23;;;;;;;5.45;3.85;;;28.10;1.00;;;;;;4986910;28;20812;-85
2023/10/12 12:15:49;;;;;;;6.70;4.00;;;27.70;1.00;;;;;;4957760;29;20464;-84
2023/10/12 12:18:19;;;;;;;7.20;4.00;;;26.90;1.00;;;;;;4943391;29;20911;-84
2023/10/12 12:20:51;;;;;;;5.97;3.55;;;26.60;1.00;;;;;;4968469;29;20432;-85
2023/10/12 12:23:26;;;;;;;4.57;3.50;;;26.10;1.00;;;;;;4962192;28;20386;-83
2023/10/12 12:25:59;;;;;;;4.47;3.30;;;26.40;1.00;;;;;;4946132;28;20500;-83
2023/10/12 12:28:31;;;;;;;5.43;3.70;;;25.90;1.00;;;;;;4980291;28;20463;-85
2023/10/12 12:31:00;;;;;;;5.70;3.83;;;25.80;1.00;;;;;;4963877;28;20424;-84
2023/10/12 12:33:27;;;;;;;6.13;3.90;;;26.60;1.00;;;;;;4974057;28;20409;-85
2023/10/12 12:36:07;;;;;;;4.20;3.47;;;25.70;1.00;;;;;;4961260;28;20405;-86
2023/10/12 12:41:00;;;;;;;7.50;3.97;;;25.60;1.00;;;;;;4981504;28;20422;-84
2023/10/12 12:43:26;;;;;;;8.02;3.67;;;25.50;1.00;;;;;;4978472;28;20403;-83
2023/10/12 12:45:54;;;;;;;7.03;4.10;;;25.80;1.00;;;;;;4961645;28;20430;-83
2023/10/12 12:48:20;;;;;;;4.00;3.60;;;26.00;1.00;;;;;;4976299;28;20772;-83
2023/10/12 12:50:49;;;;;;;6.00;4.07;;;25.20;1.00;;;;;;4988611;28;20403;-85
2023/10/12 12:53:18;;;;;;;5.53;3.40;;;26.00;1.00;;;;;;4978158;28;20397;-84
2023/10/12 12:55:47;;;;;;;6.93;4.38;;;25.70;1.00;;;;;;4952264;29;20778;-86
2023/10/12 12:58:17;;;;;;;6.30;3.78;;;25.20;1.00;;;;;;4945466;29;20533;-81
2023/10/12 13:00:45;;;;;;;7.47;3.42;;;26.50;1.00;;;;;;4962254;29;20936;-86
2023/10/12 13:03:12;;;;;;;5.20;3.40;;;26.00;1.00;;;;;;4951417;28;20400;-84
2023/10/12 13:05:38;;;;;;;5.13;3.90;;;25.60;1.00;;;;;;4976709;28;20921;-86
2023/10/12 13:08:07;;;;;;;6.63;3.60;;;25.50;1.00;;;;;;4980930;28;20396;-84
2023/10/12 13:10:34;;;;;;;6.63;3.50;;;25.20;1.00;;;;;;4961370;29;20406;-84
2023/10/12 13:13:01;;;;;;;5.90;3.60;;;25.10;1.00;;;;;;4961618;28;20415;-84
2023/10/12 13:15:26;;;;;;;4.60;3.27;;;25.40;1.00;;;;;;4963780;28;20411;-84
2023/10/12 13:17:52;;;;;;;4.60;3.45;;;25.30;1.00;;;;;;4981384;28;20825;-85
2023/10/12 13:20:39;;;;;;;6.20;3.60;;;25.70;1.00;;;;;;4964490;28;20844;-82
2023/10/12 13:23:09;;;;;;;5.53;3.92;;;25.30;1.00;;;;;;4973349;28;20476;-85
2023/10/12 13:25:36;;;;;;;5.38;3.60;;;25.40;1.00;;;;;;5008449;23;20494;-88
2023/10/12 13:28:01;;;;;;;6.78;3.65;;;26.00;1.00;;;;;;4965779;28;20403;-88
2023/10/12 13:30:27;;;;;;;7.60;3.57;;;25.30;1.00;;;;;;4989078;28;20382;-88
2023/10/12 13:32:59;;;;;;;5.60;3.00;;;25.30;1.00;;;;;;4989121;28;20414;-90
2023/10/12 13:38:09;;;;;;;3.90;3.40;;;25.90;1.00;;;;;;4988309;28;20475;-88
2023/10/12 13:40:51;;;;;;;5.88;3.60;;;26.70;1.00;;;;;;4978748;28;20422;-89
2023/10/12 13:50:05;;;;;;;6.07;3.30;;;26.80;1.00;;;;;;4933783;28;20395;-87
2023/10/12 13:53:15;;;;;;;4.90;3.30;;;27.50;1.00;;;;;;5004123;28;21021;-89
2023/10/12 13:55:42;;;;;;;6.63;3.20;;;28.30;1.00;;;;;;5002083;28;20467;-88
2023/10/12 13:58:10;;;;;;;5.47;3.90;;;26.00;1.00;;;;;;4995948;28;20481;-88
2023/10/12 14:00:38;;;;;;;5.30;3.58;;;26.90;1.00;;;;;;4985241;28;20472;-88
2023/10/12 14:03:17;;;;;;;7.47;3.22;;;26.10;1.00;;;;;;4999653;28;20400;-89
2023/10/12 14:05:43;;;;;;;4.82;3.60;;;26.60;1.00;;;;;;4988488;28;20403;-91
2023/10/12 14:12:10;;;;;;;4.82;3.55;;;27.80;1.00;;;;;;4865870;29;20441;-89
2023/10/12 14:14:36;;;;;;;5.60;3.50;;;25.70;1.00;;;;;;4846564;29;20416;-89
2023/10/12 14:17:04;;;;;;;4.68;3.40;;;23.60;1.00;;;;;;4967524;28;20421;-89
2023/10/12 14:19:45;;;;;;;6.05;3.70;;;25.40;1.00;;;;;;4994182;28;20974;-89
2023/10/12 14:24:58;;;;;;;6.55;3.25;;;25.40;1.00;;;;;;4994303;28;20381;-89
2023/10/12 14:27:23;;;;;;;5.27;3.20;;;25.90;1.00;;;;;;4981022;28;20418;-92
2023/10/12 14:29:52;;;;;;;4.53;3.50;;;25.70;1.00;;;;;;4977487;28;20405;-88
2023/10/12 14:32:18;;;;;;;4.90;3.30;;;25.80;1.00;;;;;;4992932;28;20399;-88
2023/10/12 14:34:43;;;;;;;8.10;3.33;;;26.90;1.00;;;;;;4996215;28;20902;-89
2023/10/12 14:37:13;;;;;;;5.45;3.30;;;27.00;1.00;;;;;;4976788;28;20902;-86
2023/10/12 14:39:39;;;;;;;5.10;3.40;;;27.30;1.00;;;;;;4999164;28;20409;-86
2023/10/12 14:42:06;;;;;;;4.73;3.00;;;26.30;1.00;;;;;;5003371;28;20390;-87
2023/10/12 14:44:33;;;;;;;4.60;3.10;;;26.00;1.00;;;;;;4978973;28;20405;-88
2023/10/12 14:47:05;;;;;;;6.93;3.38;;;25.70;1.00;;;;;;4976966;28;20391;-87
2023/10/12 14:49:33;;;;;;;6.33;3.90;;;25.50;1.00;;;;;;4978833;28;20949;-89
2023/10/12 14:52:00;;;;;;;5.10;3.50;;;25.20;1.00;;;;;;4976624;28;20494;-88
2023/10/12 14:54:27;;;;;;;5.20;3.00;;;25.50;1.00;;;;;;4974861;28;20487;-87
2023/10/12 14:56:53;;;;;;;6.20;3.17;;;25.00;1.00;;;;;;4993107;28;20429;-86
2023/10/12 14:59:19;;;;;;;3.78;3.38;;;26.00;1.00;;;;;;4975956;28;20407;-87
2023/10/12 15:01:45;;;;;;;9.47;3.50;;;26.10;1.00;;;;;;4993041;28;20402;-86
2023/10/12 15:04:10;;;;;;;5.80;3.13;;;24.90;1.00;;;;;;4975561;28;20470;-87
2023/10/12 15:06:36;;;;;;;6.15;3.47;;;25.20;1.00;;;;;;4975719;28;20886;-87
2023/10/12 15:09:03;;;;;;;3.77;3.30;;;25.20;1.00;;;;;;4992672;28;20910;-87
2023/10/12 15:11:30;;;;;;;6.18;3.40;;;24.60;1.00;;;;;;4975269;28;20465;-87
2023/10/12 15:13:56;;;;;;;4.85;3.22;;;24.70;1.00;;;;;;4975132;28;20402;-88